sensor_id;sensor_type;location;lat;lon;timestamp;P1;P2;P0
55857;PMS7003;41779;52.360;31.026;2022-09-06T00:03:48;4.2;2.4;2
55857;PMS7003;41779;52.360;31.026;2022-09-06T00:08:50;3.2;2.8;2.4
55857;PMS7003;41779;52.360;31.026;2022-09-06T00:13:10;3.2;2.8;2.4
55857;PMS7003;41779;52.360;31.026;2022-09-06T06:13:08;3.2;2.8;2.4
55857;PMS7003;41779;52.360;31.026;2022-09-06T06:18:18;7.3;6.3;5.3
55857;PMS7003;41779;52.360;31.026;2022-09-06T06:23:41;6.2;4.8;3.8
55857;PMS7003;41779;52.360;31.026;2022-09-06T06:28:48;9.4;5.4;4.2
55857;PMS7003;41779;52.360;31.026;2022-09-06T06:33:08;8.2;7;5.4
55857;PMS7003;41779;52.360;31.026;2022-09-06T06:38:40;9.2;6.2;5.2
55857;PMS7003;41779;52.360;31.026;2022-09-06T06:43:42;10.4;8.8;6
55857;PMS7003;41779;52.360;31.026;2022-09-06T06:48:48;13.2;12;8
55857;PMS7003;41779;52.360;31.026;2022-09-06T06:53:40;18;13.6;9.2
55857;PMS7003;41779;52.360;31.026;2022-09-06T06:58:10;30;22.8;14.4
55857;PMS7003;41779;52.360;31.026;2022-09-06T07:03:10;15.8;11.3;7.8
55857;PMS7003;41779;52.360;31.026;2022-09-06T07:08:08;13.6;11;7.6
55857;PMS7003;41779;52.360;31.026;2022-09-06T07:13:34;17.6;16;9.8
55857;PMS7003;41779;52.360;31.026;2022-09-06T07:18:58;49.2;33.8;21
55857;PMS7003;41779;52.360;31.026;2022-09-06T07:23:58;27.6;20.4;13.4
55857;PMS7003;41779;52.360;31.026;2022-09-06T07:28:10;11;9.6;6.6
55857;PMS7003;41779;52.360;31.026;2022-09-06T07:33:33;26.6;18.2;12
55857;PMS7003;41779;52.360;31.026;2022-09-06T07:38:56;15;13;8.6
55857;PMS7003;41779;52.360;31.026;2022-09-06T07:43:57;39.2;28.8;18
55857;PMS7003;41779;52.360;31.026;2022-09-06T07:48:20;39;29.6;17.6
55857;PMS7003;41779;52.360;31.026;2022-09-06T07:53:22;8.2;6.6;4.8
55857;PMS7003;41779;52.360;31.026;2022-09-06T07:58:22;6.4;4.2;3.2
55857;PMS7003;41779;52.360;31.026;2022-09-06T08:03:48;8;5.5;4
55857;PMS7003;41779;52.360;31.026;2022-09-06T08:08:34;5.8;3.6;3
55857;PMS7003;41779;52.360;31.026;2022-09-06T08:13:47;3;2.4;1.8
55857;PMS7003;41779;52.360;31.026;2022-09-06T08:18:44;2.4;1.6;1.4
55857;PMS7003;41779;52.360;31.026;2022-09-06T08:23:57;13;11.4;7.4
55857;PMS7003;41779;52.360;31.026;2022-09-06T08:28:46;4;4;2.8
55857;PMS7003;41779;52.360;31.026;2022-09-06T08:33:56;3.8;2.6;2.2
55857;PMS7003;41779;52.360;31.026;2022-09-06T08:38:10;2.8;2.2;2.2
55857;PMS7003;41779;52.360;31.026;2022-09-06T08:43:21;3.8;2.6;1.8
55857;PMS7003;41779;52.360;31.026;2022-09-06T08:48:08;5.6;4.8;3.6
55857;PMS7003;41779;52.360;31.026;2022-09-06T08:53:40;8.8;5;3.2
55857;PMS7003;41779;52.360;31.026;2022-09-06T08:59:03;4.8;3;2.4
55857;PMS7003;41779;52.360;31.026;2022-09-06T09:03:33;5.3;2.5;1.5
55857;PMS7003;41779;52.360;31.026;2022-09-06T09:08:44;2.4;1.6;1.4
55857;PMS7003;41779;52.360;31.026;2022-09-06T09:18:08;1.6;1.2;1.2
55857;PMS7003;41779;52.360;31.026;2022-09-06T09:23:34;2.2;1.8;1.4
55857;PMS7003;41779;52.360;31.026;2022-09-06T09:28:18;4;2.2;2
55857;PMS7003;41779;52.360;31.026;2022-09-06T09:34:47;4;2.5;2
55857;PMS7003;41779;52.360;31.026;2022-09-06T10:38:49;4.5;2;2
55857;PMS7003;41779;52.360;31.026;2022-09-06T10:44:27;3.4;2.4;1.8
55857;PMS7003;41779;52.360;31.026;2022-09-06T10:48:58;21.4;14;8
55857;PMS7003;41779;52.360;31.026;2022-09-06T10:54:11;12;6.6;4.2
55857;PMS7003;41779;52.360;31.026;2022-09-06T10:58:44;5.4;3.2;2.8
55857;PMS7003;41779;52.360;31.026;2022-09-06T11:03:35;13.8;9.8;6.5
55857;PMS7003;41779;52.360;31.026;2022-09-06T11:09:10;15;9.6;6.6
55857;PMS7003;41779;52.360;31.026;2022-09-06T11:14:11;14.8;12;8.4
55857;PMS7003;41779;52.360;31.026;2022-09-06T11:18:48;9.6;8.2;5.4
55857;PMS7003;41779;52.360;31.026;2022-09-06T11:23:50;4.2;4.2;3.4
55857;PMS7003;41779;52.360;31.026;2022-09-06T11:28:34;4.4;3.4;2.8
55857;PMS7003;41779;52.360;31.026;2022-09-06T11:33:46;190.2;132.4;62.8
55857;PMS7003;41779;52.360;31.026;2022-09-06T11:39:02;110;80.6;40.8
55857;PMS7003;41779;52.360;31.026;2022-09-06T11:43:54;85.4;62.2;32.4
55857;PMS7003;41779;52.360;31.026;2022-09-06T11:49:59;5;4;3
55857;PMS7003;41779;52.360;31.026;2022-09-06T11:54:21;4.4;3;2
55857;PMS7003;41779;52.360;31.026;2022-09-06T11:59:03;1.8;1.4;1.4
55857;PMS7003;41779;52.360;31.026;2022-09-06T12:04:10;1.8;1;0.8
55857;PMS7003;41779;52.360;31.026;2022-09-06T12:08:42;1.5;1;0.5
55857;PMS7003;41779;52.360;31.026;2022-09-06T12:13:57;2.2;1;0.6
55857;PMS7003;41779;52.360;31.026;2022-09-06T12:18:56;1.6;1.2;1
55857;PMS7003;41779;52.360;31.026;2022-09-06T12:23:54;1.6;1.2;1
55857;PMS7003;41779;52.360;31.026;2022-09-06T12:29:12;2.4;1.6;1.2
55857;PMS7003;41779;52.360;31.026;2022-09-06T12:33:42;1.8;1.4;1
55857;PMS7003;41779;52.360;31.026;2022-09-06T12:38:57;1;0.4;0.4
55857;PMS7003;41779;52.360;31.026;2022-09-06T12:43:54;1.2;1;0.8
55857;PMS7003;41779;52.360;31.026;2022-09-06T12:49:05;26;20;10.2
55857;PMS7003;41779;52.360;31.026;2022-09-06T12:53:49;17;11.4;6.8
55857;PMS7003;41779;52.360;31.026;2022-09-06T12:58:27;16.2;12;8
55857;PMS7003;41779;52.360;31.026;2022-09-06T13:03:54;59.6;43.2;23.6
55857;PMS7003;41779;52.360;31.026;2022-09-06T13:08:58;51.5;35.5;21
55857;PMS7003;41779;52.360;31.026;2022-09-06T13:13:22;32.2;22.6;13
55857;PMS7003;41779;52.360;31.026;2022-09-06T13:19:11;35.4;25.2;15
55857;PMS7003;41779;52.360;31.026;2022-09-06T13:24:25;74.2;53.4;28.6
55857;PMS7003;41779;52.360;31.026;2022-09-06T13:28:42;64.6;46;27
55857;PMS7003;41779;52.360;31.026;2022-09-06T13:33:40;85;61.4;33.6
55857;PMS7003;41779;52.360;31.026;2022-09-06T13:39:06;61.8;46;25.8
55857;PMS7003;41779;52.360;31.026;2022-09-06T13:44:17;62.8;42.4;24.8
55857;PMS7003;41779;52.360;31.026;2022-09-06T13:48:49;55.8;40.2;23.4
55857;PMS7003;41779;52.360;31.026;2022-09-06T13:53:36;28.8;21;13.2
55857;PMS7003;41779;52.360;31.026;2022-09-06T13:58:34;23.8;16.4;9.2
55857;PMS7003;41779;52.360;31.026;2022-09-06T14:04:00;16.2;10.8;7
55857;PMS7003;41779;52.360;31.026;2022-09-06T14:08:44;6.3;5.5;4.3
55857;PMS7003;41779;52.360;31.026;2022-09-06T14:13:34;2.6;2.2;1.6
55857;PMS7003;41779;52.360;31.026;2022-09-06T14:18:58;0.8;0.8;0.6
55857;PMS7003;41779;52.360;31.026;2022-09-06T14:23:58;3;2;1.6
55857;PMS7003;41779;52.360;31.026;2022-09-06T14:29:00;4.8;3.2;2.8
55857;PMS7003;41779;52.360;31.026;2022-09-06T14:34:10;9;5.8;4.4
55857;PMS7003;41779;52.360;31.026;2022-09-06T14:38:56;5.2;3.2;2.6
55857;PMS7003;41779;52.360;31.026;2022-09-06T14:43:24;2;0.8;0.6
55857;PMS7003;41779;52.360;31.026;2022-09-06T14:48:34;6.4;4.8;3.6
55857;PMS7003;41779;52.360;31.026;2022-09-06T14:54:09;27.2;18.8;11
55857;PMS7003;41779;52.360;31.026;2022-09-06T14:59:10;38.6;27.2;15.8
55857;PMS7003;41779;52.360;31.026;2022-09-06T15:04:03;37.2;28.2;15.8
55857;PMS7003;41779;52.360;31.026;2022-09-06T15:09:12;54.8;39.3;22.8
55857;PMS7003;41779;52.360;31.026;2022-09-06T15:13:55;37.8;27.4;15.8
55857;PMS7003;41779;52.360;31.026;2022-09-06T15:18:24;52.6;37.8;22.4
55857;PMS7003;41779;52.360;31.026;2022-09-06T15:23:34;53.8;39;23.8
55857;PMS7003;41779;52.360;31.026;2022-09-06T15:29:00;62.2;44.4;26.6
55857;PMS7003;41779;52.360;31.026;2022-09-06T15:33:33;55;39.4;21.6
55857;PMS7003;41779;52.360;31.026;2022-09-06T15:38:40;45.2;30;16.2
55857;PMS7003;41779;52.360;31.026;2022-09-06T15:43:24;41.4;29.4;16.6
55857;PMS7003;41779;52.360;31.026;2022-09-06T15:49:09;84;57.6;31.8
55857;PMS7003;41779;52.360;31.026;2022-09-06T15:54:10;79.8;56;31
55857;PMS7003;41779;52.360;31.026;2022-09-06T15:58:42;87.4;58.8;31.2
55857;PMS7003;41779;52.360;31.026;2022-09-06T16:03:54;60;42.2;23.4
55857;PMS7003;41779;52.360;31.026;2022-09-06T16:08:42;50.2;34.8;19.8
55857;PMS7003;41779;52.360;31.026;2022-09-06T16:14:12;29.3;22;12.3
55857;PMS7003;41779;52.360;31.026;2022-09-06T16:18:48;9.4;7.4;5.4
55857;PMS7003;41779;52.360;31.026;2022-09-06T16:23:22;3.8;2.4;2.2
55857;PMS7003;41779;52.360;31.026;2022-09-06T16:28:22;3.8;2.8;2.6
55857;PMS7003;41779;52.360;31.026;2022-09-06T16:33:58;4;3.4;2.8
55857;PMS7003;41779;52.360;31.026;2022-09-06T16:38:44;4.6;4;3
55857;PMS7003;41779;52.360;31.026;2022-09-06T16:43:44;6.6;4.6;3.8
55857;PMS7003;41779;52.360;31.026;2022-09-06T16:48:55;7.4;5.4;4.6
55857;PMS7003;41779;52.360;31.026;2022-09-06T16:53:54;9.2;7.6;5.2
55857;PMS7003;41779;52.360;31.026;2022-09-06T16:58:58;15.2;12;9
55857;PMS7003;41779;52.360;31.026;2022-09-06T17:04:12;27.6;19.2;13.6
55857;PMS7003;41779;52.360;31.026;2022-09-06T17:08:54;20.8;16;11.6
55857;PMS7003;41779;52.360;31.026;2022-09-06T17:13:36;20.3;16;12
55857;PMS7003;41779;52.360;31.026;2022-09-06T17:18:54;17.2;13.6;10.2
55857;PMS7003;41779;52.360;31.026;2022-09-06T17:24:12;16.8;10.4;7.6
55857;PMS7003;41779;52.360;31.026;2022-09-06T17:29:08;20.2;17;12.2
55857;PMS7003;41779;52.360;31.026;2022-09-06T17:33:58;13.6;10.6;7.6
55857;PMS7003;41779;52.360;31.026;2022-09-06T17:39:13;13.2;11.4;8.8
55857;PMS7003;41779;52.360;31.026;2022-09-06T17:43:56;16.6;11;8.2
55857;PMS7003;41779;52.360;31.026;2022-09-06T17:48:48;17.6;13.6;9.4
55857;PMS7003;41779;52.360;31.026;2022-09-06T17:53:34;7.2;6.2;4.6
55857;PMS7003;41779;52.360;31.026;2022-09-06T17:59:03;10.2;6.2;4.8
55857;PMS7003;41779;52.360;31.026;2022-09-06T18:03:26;10.4;8.2;5.4
55857;PMS7003;41779;52.360;31.026;2022-09-06T18:08:22;8;6.2;4.8
55857;PMS7003;41779;52.360;31.026;2022-09-06T18:13:32;7.8;6.3;5.3
55857;PMS7003;41779;52.360;31.026;2022-09-06T18:18:49;9.4;7.2;5.2
55857;PMS7003;41779;52.360;31.026;2022-09-06T18:24:08;10.4;8.8;6
55857;PMS7003;41779;52.360;31.026;2022-09-06T18:28:56;11.4;8.2;6.4
55857;PMS7003;41779;52.360;31.026;2022-09-06T18:33:54;12.6;10;8
55857;PMS7003;41779;52.360;31.026;2022-09-06T18:38:30;14.4;10.6;8.6
55857;PMS7003;41779;52.360;31.026;2022-09-06T18:43:44;15;11;9.2
55857;PMS7003;41779;52.360;31.026;2022-09-06T18:49:10;13.2;9.6;7.2
55857;PMS7003;41779;52.360;31.026;2022-09-06T18:53:22;11.8;8.8;7.4
55857;PMS7003;41779;52.360;31.026;2022-09-06T18:58:46;12.2;8.4;6.6
55857;PMS7003;41779;52.360;31.026;2022-09-06T19:04:10;10.6;8;5.4
55857;PMS7003;41779;52.360;31.026;2022-09-06T19:09:11;10.2;9;7
55857;PMS7003;41779;52.360;31.026;2022-09-06T19:13:37;10.5;8.5;6.3
55857;PMS7003;41779;52.360;31.026;2022-09-06T19:18:54;10.8;8.2;6.4
55857;PMS7003;41779;52.360;31.026;2022-09-06T19:23:57;9.6;7.8;6.2
55857;PMS7003;41779;52.360;31.026;2022-09-06T19:29:11;12;9.8;7
55857;PMS7003;41779;52.360;31.026;2022-09-06T19:33:34;10.2;8.8;6.6
55857;PMS7003;41779;52.360;31.026;2022-09-06T19:39:09;13.6;10.6;7.6
55857;PMS7003;41779;52.360;31.026;2022-09-06T19:43:34;14.4;10.4;7.4
55857;PMS7003;41779;52.360;31.026;2022-09-06T19:48:35;12.6;9;6.8
55857;PMS7003;41779;52.360;31.026;2022-09-06T19:53:34;14.2;9.6;7.6
55857;PMS7003;41779;52.360;31.026;2022-09-06T19:58:56;10.8;8.2;6.2
55857;PMS7003;41779;52.360;31.026;2022-09-06T20:04:10;9;7;5.6
55857;PMS7003;41779;52.360;31.026;2022-09-06T20:08:52;9.6;6.8;4.8
55857;PMS7003;41779;52.360;31.026;2022-09-06T20:13:58;7;5.5;4
55857;PMS7003;41779;52.360;31.026;2022-09-06T20:18:50;9.6;7.8;6
55857;PMS7003;41779;52.360;31.026;2022-09-06T20:23:24;8.8;7;5.6
55857;PMS7003;41779;52.360;31.026;2022-09-06T20:28:34;9.6;7.6;5
55857;PMS7003;41779;52.360;31.026;2022-09-06T20:33:34;11;9.2;6.2
55857;PMS7003;41779;52.360;31.026;2022-09-06T20:38:24;11.2;8.8;6.2
55857;PMS7003;41779;52.360;31.026;2022-09-06T20:43:34;10.8;7.6;6.2
55857;PMS7003;41779;52.360;31.026;2022-09-06T20:48:24;12.8;8.4;5
55857;PMS7003;41779;52.360;31.026;2022-09-06T20:53:58;10.4;6.8;5
55857;PMS7003;41779;52.360;31.026;2022-09-06T20:59:09;7.4;5.6;4
55857;PMS7003;41779;52.360;31.026;2022-09-06T21:03:34;6.4;4.2;3.2
55857;PMS7003;41779;52.360;31.026;2022-09-06T21:08:44;7.2;4.8;3.6
55857;PMS7003;41779;52.360;31.026;2022-09-06T21:14:08;6.4;3.6;3
55857;PMS7003;41779;52.360;31.026;2022-09-06T21:19:08;4;3;2.8
55857;PMS7003;41779;52.360;31.026;2022-09-06T21:23:46;4.6;3.4;3.2
55857;PMS7003;41779;52.360;31.026;2022-09-06T21:28:26;6.6;4.4;3
55857;PMS7003;41779;52.360;31.026;2022-09-06T21:33:34;4.8;2.8;2.6
55857;PMS7003;41779;52.360;31.026;2022-09-06T21:38:59;4.6;2.8;2.6
55857;PMS7003;41779;52.360;31.026;2022-09-06T21:43:51;4.6;3.4;2.6
55857;PMS7003;41779;52.360;31.026;2022-09-06T21:48:56;3.4;2.4;2.2
55857;PMS7003;41779;52.360;31.026;2022-09-06T21:53:46;6;3.4;3
55857;PMS7003;41779;52.360;31.026;2022-09-06T21:59:08;4.6;2.4;2.2
55857;PMS7003;41779;52.360;31.026;2022-09-06T22:03:58;5;2.6;1.8
55857;PMS7003;41779;52.360;31.026;2022-09-06T22:09:03;4.2;2.8;2.2
55857;PMS7003;41779;52.360;31.026;2022-09-06T22:13:34;4.8;3.4;3
55857;PMS7003;41779;52.360;31.026;2022-09-06T22:18:34;6.5;3.5;3.3
55857;PMS7003;41779;52.360;31.026;2022-09-06T22:23:34;4;2.8;2.2
55857;PMS7003;41779;52.360;31.026;2022-09-06T22:29:10;5.2;2.8;2.4
55857;PMS7003;41779;52.360;31.026;2022-09-06T22:34:12;6.2;3.8;3.2
55857;PMS7003;41779;52.360;31.026;2022-09-06T22:39:02;6.2;5.2;3.8
55857;PMS7003;41779;52.360;31.026;2022-09-06T22:44:10;6;4.8;3.4
55857;PMS7003;41779;52.360;31.026;2022-09-06T22:48:52;6.8;4.8;3.2
55857;PMS7003;41779;52.360;31.026;2022-09-06T22:53:46;5.4;3.6;3
55857;PMS7003;41779;52.360;31.026;2022-09-06T22:58:58;5;4;3.2
55857;PMS7003;41779;52.360;31.026;2022-09-06T23:03:58;4.6;3.6;2.6
55857;PMS7003;41779;52.360;31.026;2022-09-06T23:08:36;6.4;3;2.6
55857;PMS7003;41779;52.360;31.026;2022-09-06T23:13:36;6.2;4.2;2.6
55857;PMS7003;41779;52.360;31.026;2022-09-06T23:18:36;5;4;3.5
55857;PMS7003;41779;52.360;31.026;2022-09-06T23:24:06;7.6;4;3
55857;PMS7003;41779;52.360;31.026;2022-09-06T23:29:06;6.8;5.4;4.2
55857;PMS7003;41779;52.360;31.026;2022-09-06T23:33:42;4.4;4;3.4
55857;PMS7003;41779;52.360;31.026;2022-09-06T23:38:31;6.2;4;3.2
55857;PMS7003;41779;52.360;31.026;2022-09-06T23:43:52;7.8;5.6;4.6
55857;PMS7003;41779;52.360;31.026;2022-09-06T23:49:06;6.6;5.2;4.6
55857;PMS7003;41779;52.360;31.026;2022-09-06T23:53:46;7.8;6;5.2
55857;PMS7003;41779;52.360;31.026;2022-09-06T23:58:26;9.2;6.2;4.8
